Time;durP1;ratioP1;P1;durP2;ratioP2;P2;SDS_P1;SDS_P2;PMS_P1;PMS_P2;Temp;Humidity;BMP_temperature;BMP_pressure;BME280_temperature;BME280_humidity;BME280_pressure;Samples;Min_cycle;Max_cycle;Signal;HPM_P1;HPM_P2
2022/08/18 00:01:47;;;;;;;38.58;20.75;;;19.70;99.90;;;;;;5031044;28;20044;-66
2022/08/18 00:04:13;;;;;;;32.58;20.52;;;19.70;99.90;;;;;;5030615;28;20052;-66
2022/08/18 00:06:40;;;;;;;36.33;19.55;;;19.70;99.90;;;;;;5029655;28;20128;-66
2022/08/18 00:09:08;;;;;;;31.42;19.55;;;19.60;99.90;;;;;;5030949;28;20046;-66
2022/08/18 00:11:37;;;;;;;30.17;19.90;;;19.70;99.90;;;;;;5030994;28;20037;-66
2022/08/18 00:14:03;;;;;;;27.80;20.38;;;19.70;99.90;;;;;;5029362;28;20052;-66
2022/08/18 00:16:29;;;;;;;35.90;21.02;;;19.70;99.90;;;;;;5030829;28;20050;-66
2022/08/18 00:18:55;;;;;;;33.05;20.40;;;19.50;99.90;;;;;;5029477;28;20043;-66
2022/08/18 00:21:20;;;;;;;32.63;19.55;;;19.50;99.90;;;;;;5030884;28;20041;-66
2022/08/18 00:23:46;;;;;;;30.02;20.92;;;19.50;99.90;;;;;;5029316;28;20038;-66
2022/08/18 00:26:11;;;;;;;30.88;19.15;;;19.50;99.90;;;;;;5029729;28;20045;-66
2022/08/18 00:28:37;;;;;;;28.80;19.13;;;19.60;99.90;;;;;;5030921;28;20416;-66
2022/08/18 00:31:04;;;;;;;32.90;19.13;;;19.60;99.90;;;;;;5029609;28;20518;-66
2022/08/18 00:33:30;;;;;;;27.33;18.80;;;19.60;99.90;;;;;;5030629;28;20033;-66
2022/08/18 00:35:56;;;;;;;31.23;19.55;;;19.60;99.90;;;;;;5030693;28;20103;-66
2022/08/18 00:38:22;;;;;;;25.48;19.05;;;19.60;99.90;;;;;;5033597;28;20048;-66
2022/08/18 00:40:50;;;;;;;27.92;19.63;;;19.60;99.90;;;;;;5034845;28;20048;-66
2022/08/18 00:43:43;;;;;;;31.45;20.00;;;19.60;99.90;;;;;;5034646;28;20108;-66
2022/08/18 00:46:15;;;;;;;28.65;18.35;;;19.60;99.90;;;;;;5034628;28;20116;-66
2022/08/18 00:48:41;;;;;;;24.60;17.35;;;19.60;99.90;;;;;;5033294;28;20045;-66
2022/08/18 00:51:11;;;;;;;26.48;18.17;;;19.60;99.90;;;;;;5034684;28;20475;-66
2022/08/18 00:53:44;;;;;;;26.75;17.45;;;19.60;99.90;;;;;;5033028;28;20041;-66
2022/08/18 00:56:23;;;;;;;23.85;17.00;;;19.60;99.90;;;;;;5034417;28;20407;-66
2022/08/18 00:58:54;;;;;;;29.55;16.75;;;19.60;99.90;;;;;;5034290;28;20042;-66
2022/08/18 01:01:23;;;;;;;26.92;15.57;;;19.60;99.90;;;;;;5033208;28;20087;-66
2022/08/18 01:03:53;;;;;;;23.77;15.93;;;19.60;99.90;;;;;;5034119;28;20041;-66
2022/08/18 01:06:31;;;;;;;26.52;14.65;;;19.60;99.90;;;;;;5034085;28;20038;-66
2022/08/18 01:08:57;;;;;;;24.75;15.13;;;19.60;99.90;;;;;;5034180;28;20038;-66
2022/08/18 01:11:22;;;;;;;22.73;15.98;;;19.60;99.90;;;;;;5034311;28;20041;-66
2022/08/18 01:13:48;;;;;;;26.73;15.57;;;19.60;99.90;;;;;;5034049;28;20116;-66
2022/08/18 01:21:51;;;;;;;27.10;15.18;;;19.60;99.90;;;;;;5034117;28;20057;-66
2022/08/18 01:24:19;;;;;;;22.95;15.20;;;19.60;99.90;;;;;;5033648;28;20599;-66
2022/08/18 01:26:49;;;;;;;18.85;13.82;;;19.60;99.90;;;;;;5033897;28;20112;-66
2022/08/18 01:29:16;;;;;;;25.42;14.10;;;19.60;99.90;;;;;;5034037;28;20499;-66
2022/08/18 01:31:50;;;;;;;17.80;13.27;;;19.60;99.90;;;;;;5033929;28;20044;-66
2022/08/18 01:34:16;;;;;;;18.20;12.63;;;19.60;99.90;;;;;;5033640;28;20072;-66
2022/08/18 01:36:42;;;;;;;19.70;12.85;;;19.60;99.90;;;;;;5033751;28;20460;-66
2022/08/18 01:39:11;;;;;;;21.65;12.05;;;19.60;99.90;;;;;;5032805;28;20045;-66
2022/08/18 01:41:37;;;;;;;19.15;12.43;;;19.60;99.90;;;;;;5033547;28;20068;-66
2022/08/18 01:44:04;;;;;;;24.95;12.48;;;19.60;99.90;;;;;;5033414;28;20197;-66
2022/08/18 01:46:33;;;;;;;22.42;12.88;;;19.60;99.90;;;;;;5033383;28;20053;-66
2022/08/18 01:49:00;;;;;;;23.50;11.68;;;19.60;99.90;;;;;;5032579;28;20080;-66
2022/08/18 01:51:31;;;;;;;18.23;11.30;;;19.60;99.90;;;;;;5033441;28;20447;-66
2022/08/18 01:53:57;;;;;;;23.13;11.73;;;19.60;99.90;;;;;;5032874;28;20095;-66
2022/08/18 01:56:26;;;;;;;23.65;11.60;;;19.50;99.90;;;;;;5033465;28;20048;-66
2022/08/18 01:58:53;;;;;;;19.70;10.93;;;19.50;99.90;;;;;;5033350;28;20116;-66
2022/08/18 02:01:19;;;;;;;17.88;11.00;;;19.50;99.90;;;;;;5033262;28;20082;-66
2022/08/18 02:03:54;;;;;;;20.73;10.75;;;19.50;99.90;;;;;;5032957;28;20666;-66
2022/08/18 02:06:20;;;;;;;13.00;9.80;;;19.50;99.90;;;;;;5033006;28;20096;-66
2022/08/18 02:08:46;;;;;;;16.88;10.27;;;19.50;99.90;;;;;;5033025;28;20045;-66
2022/08/18 02:11:12;;;;;;;20.30;8.40;;;19.40;99.90;;;;;;5032003;28;20041;-66
2022/08/18 02:13:39;;;;;;;18.77;9.90;;;19.40;99.90;;;;;;5032879;28;20041;-66
2022/08/18 02:16:05;;;;;;;16.63;9.82;;;19.40;99.90;;;;;;5032838;28;20042;-66
2022/08/18 02:18:34;;;;;;;20.98;10.23;;;19.40;99.90;;;;;;5031870;28;20507;-66
2022/08/18 02:21:07;;;;;;;20.42;11.00;;;19.40;99.90;;;;;;5031386;28;20053;-66
2022/08/18 02:23:32;;;;;;;17.80;10.10;;;19.40;99.90;;;;;;5033020;28;20045;-66
2022/08/18 02:25:58;;;;;;;14.38;9.60;;;19.40;99.90;;;;;;5032585;28;20525;-66
2022/08/18 02:28:24;;;;;;;17.52;10.18;;;19.30;99.90;;;;;;5032890;28;20472;-66
2022/08/18 02:30:49;;;;;;;26.73;10.15;;;19.30;99.90;;;;;;5032632;28;20045;-66
2022/08/18 02:33:15;;;;;;;18.30;9.43;;;19.30;99.90;;;;;;5032607;28;20034;-66
2022/08/18 02:35:42;;;;;;;21.05;9.63;;;19.30;99.90;;;;;;5032201;28;20522;-66
2022/08/18 02:38:08;;;;;;;15.70;9.32;;;19.30;99.90;;;;;;5032467;28;20125;-66
2022/08/18 02:40:34;;;;;;;22.17;9.63;;;19.30;99.90;;;;;;5032528;28;20136;-66
2022/08/18 02:43:08;;;;;;;18.10;8.73;;;19.30;99.90;;;;;;5032543;28;20120;-66
2022/08/18 02:45:36;;;;;;;15.73;9.00;;;19.30;99.90;;;;;;5030870;28;20045;-66
2022/08/18 02:48:02;;;;;;;17.02;8.80;;;19.30;99.90;;;;;;5031262;28;20549;-66
2022/08/18 02:50:28;;;;;;;16.67;8.75;;;19.30;99.90;;;;;;5032178;28;20518;-66
2022/08/18 02:52:53;;;;;;;22.75;8.90;;;19.30;99.90;;;;;;5032456;28;20038;-66
2022/08/18 02:55:21;;;;;;;14.68;8.70;;;19.30;99.90;;;;;;5032024;28;20053;-66
2022/08/18 02:57:47;;;;;;;18.20;8.90;;;19.30;99.90;;;;;;5032244;28;20080;-66
2022/08/18 03:00:16;;;;;;;12.40;8.43;;;19.20;99.90;;;;;;5032077;28;20079;-66
2022/08/18 03:02:46;;;;;;;20.48;9.48;;;19.20;99.90;;;;;;5030782;28;20121;-66
2022/08/18 03:05:12;;;;;;;15.35;8.95;;;19.20;99.90;;;;;;5031854;28;20446;-66
2022/08/18 03:07:38;;;;;;;15.38;8.48;;;19.30;99.90;;;;;;5031941;28;20156;-66
2022/08/18 03:10:04;;;;;;;15.60;9.65;;;19.30;99.90;;;;;;5031288;28;20038;-66
2022/08/18 03:12:29;;;;;;;17.90;9.15;;;19.20;99.90;;;;;;5031787;28;20491;-66
2022/08/18 03:14:55;;;;;;;22.88;9.88;;;19.30;99.90;;;;;;5031683;28;20044;-66
2022/08/18 03:17:20;;;;;;;19.67;9.25;;;19.30;99.90;;;;;;5031685;28;20455;-66
2022/08/18 03:19:46;;;;;;;14.57;9.80;;;19.30;99.90;;;;;;5031649;28;20048;-66
2022/08/18 03:22:13;;;;;;;20.63;10.05;;;19.30;99.90;;;;;;5031372;28;20115;-66
2022/08/18 03:24:39;;;;;;;18.52;10.23;;;19.30;99.90;;;;;;5030207;28;20464;-66
2022/08/18 03:27:05;;;;;;;20.42;9.70;;;19.30;99.90;;;;;;5030349;28;20048;-66
2022/08/18 03:29:32;;;;;;;18.35;9.55;;;19.30;99.90;;;;;;5031595;28;20060;-66
2022/08/18 03:31:58;;;;;;;18.55;10.38;;;19.30;99.90;;;;;;5031592;28;20037;-66
2022/08/18 03:34:23;;;;;;;18.88;10.48;;;19.30;99.90;;;;;;5030090;28;20056;-65
2022/08/18 03:36:50;;;;;;;19.42;9.80;;;19.30;99.90;;;;;;5031314;28;20048;-66
2022/08/18 03:39:17;;;;;;;15.15;10.40;;;19.20;99.90;;;;;;5030199;28;20042;-66
2022/08/18 03:41:44;;;;;;;23.85;10.82;;;19.30;99.90;;;;;;5031425;28;20045;-66
2022/08/18 03:44:12;;;;;;;22.15;10.50;;;19.20;99.90;;;;;;5031116;28;20037;-66
2022/08/18 03:46:40;;;;;;;24.60;10.95;;;19.30;99.90;;;;;;5031198;28;20045;-66
2022/08/18 03:49:05;;;;;;;20.85;10.52;;;19.30;99.90;;;;;;5031248;28;20029;-66
2022/08/18 03:51:31;;;;;;;19.80;10.77;;;19.30;99.90;;;;;;5031129;28;20041;-66
2022/08/18 03:53:59;;;;;;;19.92;11.93;;;19.30;99.90;;;;;;5031115;28;20041;-66
2022/08/18 03:56:29;;;;;;;19.65;11.70;;;19.30;99.90;;;;;;5031259;28;20103;-66
2022/08/18 03:58:58;;;;;;;22.38;12.82;;;19.30;99.90;;;;;;5031203;28;20392;-66
2022/08/18 04:01:28;;;;;;;21.27;13.82;;;19.30;99.90;;;;;;5029736;28;20052;-66
2022/08/18 04:03:56;;;;;;;21.75;12.25;;;19.30;99.90;;;;;;5030676;28;20084;-66
2022/08/18 04:06:28;;;;;;;21.33;13.25;;;19.30;99.90;;;;;;5031170;28;20045;-66
2022/08/18 04:08:56;;;;;;;21.45;13.85;;;19.30;99.90;;;;;;5031017;28;20038;-66
2022/08/18 04:11:23;;;;;;;24.02;13.35;;;19.30;99.90;;;;;;5030817;28;20121;-67
2022/08/18 04:13:49;;;;;;;24.75;14.13;;;19.30;99.90;;;;;;5030634;28;20033;-66
2022/08/18 04:16:14;;;;;;;23.38;14.63;;;19.30;99.90;;;;;;5030883;28;20513;-66
2022/08/18 04:18:40;;;;;;;22.10;14.77;;;19.30;99.90;;;;;;5031034;28;20037;-66
2022/08/18 04:21:09;;;;;;;24.35;14.65;;;19.30;99.90;;;;;;5030996;28;20038;-66
2022/08/18 04:23:36;;;;;;;24.63;16.05;;;19.30;99.90;;;;;;5030907;28;20049;-66
2022/08/18 04:26:04;;;;;;;23.15;15.40;;;19.30;99.90;;;;;;5030555;28;20049;-65
2022/08/18 04:28:31;;;;;;;33.38;16.35;;;19.30;99.90;;;;;;5030829;28;20037;-66
2022/08/18 04:30:58;;;;;;;24.92;17.25;;;19.30;99.90;;;;;;5029631;28;20088;-66
2022/08/18 04:33:25;;;;;;;30.33;18.23;;;19.30;99.90;;;;;;5030904;28;20121;-66
2022/08/18 04:35:51;;;;;;;31.25;16.85;;;19.30;99.90;;;;;;5029511;28;20053;-66
2022/08/18 04:38:16;;;;;;;32.20;17.92;;;19.30;99.90;;;;;;5030615;28;20034;-66
2022/08/18 04:40:42;;;;;;;32.05;17.38;;;19.30;99.90;;;;;;5030602;28;20045;-66
2022/08/18 04:43:14;;;;;;;31.60;16.95;;;19.30;99.90;;;;;;5029457;28;20495;-66
2022/08/18 04:45:41;;;;;;;33.60;18.85;;;19.30;99.90;;;;;;5030174;28;20045;-66
2022/08/18 04:48:07;;;;;;;28.55;18.73;;;19.30;99.90;;;;;;5029494;28;20038;-66
2022/08/18 04:50:34;;;;;;;31.65;19.58;;;19.30;99.90;;;;;;5027445;28;20044;-66
2022/08/18 04:55:50;;;;;;;37.75;18.25;;;19.30;99.90;;;;;;5027465;28;20785;-66
2022/08/18 04:58:17;;;;;;;32.85;17.95;;;19.30;99.90;;;;;;5028000;28;20041;-66
2022/08/18 05:00:44;;;;;;;28.88;17.00;;;19.30;99.90;;;;;;5026924;28;20045;-66
2022/08/18 05:03:10;;;;;;;31.40;16.13;;;19.30;99.90;;;;;;5030293;28;20052;-66
2022/08/18 05:05:36;;;;;;;29.15;14.90;;;19.40;99.90;;;;;;5028735;28;20454;-66
2022/08/18 05:08:02;;;;;;;33.33;15.52;;;19.30;99.90;;;;;;5012188;28;20041;-66
2022/08/18 05:10:27;;;;;;;30.17;14.93;;;19.40;99.90;;;;;;5029473;28;20038;-66
2022/08/18 05:12:53;;;;;;;30.67;13.50;;;19.30;99.90;;;;;;5029517;28;20041;-66
2022/08/18 05:15:19;;;;;;;26.50;14.07;;;19.30;99.90;;;;;;5030079;28;20041;-66
2022/08/18 05:17:45;;;;;;;31.17;14.45;;;19.30;99.90;;;;;;5030467;28;20045;-66
2022/08/18 05:20:11;;;;;;;27.40;14.25;;;19.30;99.90;;;;;;5028742;28;20050;-66
2022/08/18 05:22:39;;;;;;;33.75;14.13;;;19.30;99.90;;;;;;5030442;28;20513;-66
2022/08/18 05:25:06;;;;;;;27.73;13.40;;;19.30;99.90;;;;;;5032550;28;20414;-66
2022/08/18 05:27:34;;;;;;;29.50;13.13;;;19.30;99.90;;;;;;5033985;28;20468;-66
2022/08/18 05:30:00;;;;;;;21.80;11.95;;;19.30;99.90;;;;;;5032531;28;20045;-66
2022/08/18 05:32:26;;;;;;;32.38;13.45;;;19.30;99.90;;;;;;5033721;28;20081;-66
2022/08/18 05:34:52;;;;;;;27.85;13.30;;;19.30;99.90;;;;;;5033437;28;20072;-66
2022/08/18 05:37:39;;;;;;;29.45;13.23;;;19.30;99.90;;;;;;5033835;28;20495;-66
2022/08/18 05:40:07;;;;;;;26.13;12.48;;;19.30;99.90;;;;;;5032390;28;20507;-66
2022/08/18 05:42:36;;;;;;;29.73;12.50;;;19.30;99.90;;;;;;5033760;28;20049;-66
2022/08/18 05:45:10;;;;;;;29.92;12.27;;;19.30;99.90;;;;;;5033134;28;20087;-66
2022/08/18 05:47:35;;;;;;;31.17;12.43;;;19.30;99.90;;;;;;5032307;28;20510;-66
2022/08/18 05:50:30;;;;;;;21.85;12.30;;;19.30;99.90;;;;;;5033384;28;20045;-66
2022/08/18 05:52:59;;;;;;;27.52;11.90;;;19.30;99.90;;;;;;5029839;28;20060;-66
2022/08/18 05:58:24;;;;;;;30.23;12.37;;;19.30;99.90;;;;;;5032487;28;20400;-65
2022/08/18 06:00:57;;;;;;;29.05;11.35;;;19.30;99.90;;;;;;5033292;28;20053;-65
2022/08/18 06:03:37;;;;;;;25.65;12.32;;;19.30;99.90;;;;;;5031923;28;20564;-66
2022/08/18 06:06:10;;;;;;;22.95;11.50;;;19.40;99.90;;;;;;5032744;28;20072;-66
2022/08/18 06:09:09;;;;;;;21.58;11.65;;;19.50;99.90;;;;;;5031795;28;20159;-66
2022/08/18 06:11:35;;;;;;;17.05;11.35;;;19.50;99.90;;;;;;5033097;28;20052;-66
2022/08/18 06:14:00;;;;;;;25.85;11.98;;;19.60;99.90;;;;;;5032694;28;20408;-66
2022/08/18 06:17:05;;;;;;;22.05;11.07;;;19.60;99.90;;;;;;5032803;28;20049;-66
2022/08/18 06:20:09;;;;;;;25.10;12.13;;;19.70;99.90;;;;;;5032935;28;20141;-66
2022/08/18 06:22:38;;;;;;;19.88;11.70;;;19.70;99.90;;;;;;5031859;28;20037;-65
2022/08/18 06:25:32;;;;;;;22.77;11.35;;;19.80;99.90;;;;;;5032579;28;20416;-66
2022/08/18 06:28:12;;;;;;;19.00;11.27;;;19.80;99.90;;;;;;5032815;28;20041;-66
2022/08/18 06:31:01;;;;;;;15.57;10.48;;;19.80;99.90;;;;;;5032573;28;20045;-66
2022/08/18 06:33:30;;;;;;;24.17;10.60;;;19.80;99.90;;;;;;5032672;28;20045;-66
2022/08/18 06:36:07;;;;;;;19.92;11.65;;;19.80;99.90;;;;;;5032078;28;20033;-66
2022/08/18 06:39:01;;;;;;;14.65;11.23;;;19.80;99.90;;;;;;5032583;28;20585;-66
2022/08/18 06:41:37;;;;;;;16.77;11.45;;;19.80;99.90;;;;;;5032643;28;20037;-66
2022/08/18 06:44:27;;;;;;;19.10;11.48;;;19.80;99.90;;;;;;5032363;28;20049;-66
2022/08/18 06:47:17;;;;;;;17.02;10.55;;;19.90;99.90;;;;;;5032438;28;20057;-66
2022/08/18 06:50:07;;;;;;;27.23;11.15;;;20.00;99.90;;;;;;5032412;28;20038;-67
2022/08/18 06:52:49;;;;;;;21.35;10.88;;;20.10;99.90;;;;;;5032329;28;20116;-67
2022/08/18 06:55:17;;;;;;;14.25;9.40;;;20.20;99.90;;;;;;5031932;28;20114;-67
2022/08/18 06:57:58;;;;;;;15.73;9.38;;;20.20;99.90;;;;;;5030757;28;20092;-67
2022/08/18 07:00:28;;;;;;;21.10;9.27;;;20.20;99.90;;;;;;5032123;28;20041;-67
2022/08/18 07:03:21;;;;;;;16.55;9.40;;;20.20;99.90;;;;;;5032001;28;20037;-66
2022/08/18 07:06:04;;;;;;;16.83;9.15;;;20.20;99.90;;;;;;5031571;28;20085;-67
2022/08/18 07:08:42;;;;;;;18.65;9.48;;;20.20;99.90;;;;;;5031946;28;20524;-67
2022/08/18 07:11:27;;;;;;;13.65;8.93;;;20.20;99.90;;;;;;5031926;28;20043;-67
2022/08/18 07:14:19;;;;;;;14.40;8.18;;;20.20;99.90;;;;;;5030488;28;20042;-67
2022/08/18 07:16:45;;;;;;;16.30;8.57;;;20.20;99.90;;;;;;5025800;28;20046;-67
2022/08/18 07:19:20;;;;;;;16.38;8.85;;;20.30;99.90;;;;;;5023047;28;20047;-67
2022/08/18 07:22:07;;;;;;;16.15;8.00;;;20.30;99.90;;;;;;5031804;28;20033;-67
2022/08/18 07:24:38;;;;;;;13.40;8.00;;;20.40;99.90;;;;;;5029925;28;20048;-67
2022/08/18 07:27:11;;;;;;;13.70;7.95;;;20.40;99.90;;;;;;5030092;28;20049;-67
2022/08/18 07:30:05;;;;;;;15.50;7.40;;;20.40;99.90;;;;;;5031419;28;20044;-67
2022/08/18 07:32:46;;;;;;;17.98;8.15;;;20.50;99.90;;;;;;5030077;28;20041;-67
2022/08/18 07:35:16;;;;;;;13.38;8.05;;;20.50;99.90;;;;;;5029324;28;20041;-67
2022/08/18 07:37:45;;;;;;;13.82;8.50;;;20.50;99.90;;;;;;5031521;28;20387;-67
2022/08/18 07:40:47;;;;;;;19.70;8.20;;;20.50;99.90;;;;;;5031440;28;20049;-67
2022/08/18 07:43:36;;;;;;;13.40;8.52;;;20.60;99.90;;;;;;5031342;28;20049;-67
2022/08/18 07:46:20;;;;;;;11.60;7.50;;;20.60;99.90;;;;;;5029413;28;20091;-67
2022/08/18 07:48:45;;;;;;;12.48;7.05;;;20.70;99.90;;;;;;5031142;28;20041;-67
2022/08/18 07:51:20;;;;;;;15.45;6.68;;;20.70;99.90;;;;;;5031440;28;20495;-67
2022/08/18 07:54:00;;;;;;;15.95;7.13;;;20.80;99.90;;;;;;5029536;28;20163;-67
2022/08/18 07:56:48;;;;;;;13.40;7.22;;;20.80;99.90;;;;;;5031239;28;20507;-67
2022/08/18 07:59:29;;;;;;;14.00;7.13;;;20.90;99.90;;;;;;5030940;28;20041;-67
2022/08/18 08:02:25;;;;;;;9.05;6.65;;;20.90;99.90;;;;;;5029833;28;20042;-67
2022/08/18 08:05:10;;;;;;;12.32;5.82;;;21.00;99.90;;;;;;5029292;28;20076;-67
2022/08/18 08:07:58;;;;;;;11.43;5.45;;;21.00;99.90;;;;;;5030964;28;20087;-67
2022/08/18 08:10:35;;;;;;;5.13;3.90;;;21.10;99.90;;;;;;5030615;28;20128;-67
2022/08/18 08:13:01;;;;;;;7.82;4.90;;;21.00;99.90;;;;;;5029628;28;20052;-67
2022/08/18 08:15:35;;;;;;;8.98;4.82;;;20.90;99.90;;;;;;5029453;28;20045;-67
2022/08/18 08:18:35;;;;;;;9.38;5.03;;;21.10;99.90;;;;;;5029903;28;20059;-68
2022/08/18 08:21:07;;;;;;;5.28;4.43;;;21.10;99.90;;;;;;5030926;28;20034;-67
2022/08/18 08:23:53;;;;;;;10.85;4.95;;;21.00;99.90;;;;;;5029886;28;20041;-67
2022/08/18 08:26:55;;;;;;;5.25;4.75;;;21.10;99.90;;;;;;5029718;28;20622;-67
2022/08/18 08:29:28;;;;;;;7.47;5.60;;;21.20;99.90;;;;;;4997353;28;20112;-67
2022/08/18 08:32:02;;;;;;;7.57;5.18;;;21.20;99.90;;;;;;5029609;28;20045;-67
2022/08/18 08:34:57;;;;;;;5.60;5.03;;;21.30;99.90;;;;;;5026673;28;20113;-67
2022/08/18 08:37:31;;;;;;;6.55;4.85;;;21.20;99.90;;;;;;5030742;28;20120;-67
2022/08/18 08:40:01;;;;;;;8.15;5.10;;;21.20;99.90;;;;;;5030481;28;20033;-67
2022/08/18 08:42:43;;;;;;;8.45;5.35;;;21.20;99.90;;;;;;5029403;28;20052;-67
2022/08/18 08:45:28;;;;;;;7.55;5.72;;;21.20;99.90;;;;;;5030321;28;20049;-67
2022/08/18 08:48:11;;;;;;;8.60;4.97;;;21.10;99.90;;;;;;5029481;28;20699;-67
2022/08/18 08:50:54;;;;;;;9.52;5.55;;;21.20;99.90;;;;;;5030506;28;20037;-67
2022/08/18 08:53:31;;;;;;;7.82;5.28;;;21.10;99.90;;;;;;5030739;28;20780;-67
2022/08/18 08:56:01;;;;;;;6.57;5.22;;;21.10;99.90;;;;;;5030242;28;20140;-67
2022/08/18 08:58:36;;;;;;;7.28;4.93;;;21.20;99.90;;;;;;5030738;28;20087;-67
2022/08/18 09:01:03;;;;;;;7.60;4.93;;;21.20;99.90;;;;;;5034392;28;20049;-67
2022/08/18 09:03:35;;;;;;;6.22;4.50;;;21.40;99.90;;;;;;5033984;28;20041;-67
2022/08/18 09:06:09;;;;;;;5.57;4.55;;;21.40;99.90;;;;;;5026547;28;20050;-67
2022/08/18 09:08:44;;;;;;;8.27;4.65;;;21.20;99.90;;;;;;5022970;28;20079;-67
2022/08/18 09:11:28;;;;;;;6.40;4.55;;;21.10;99.90;;;;;;5032405;28;20120;-67
2022/08/18 09:14:25;;;;;;;8.30;3.67;;;21.10;99.90;;;;;;5028122;28;20050;-66
2022/08/18 09:17:16;;;;;;;9.98;4.20;;;21.20;99.90;;;;;;5028360;28;20042;-66
2022/08/18 09:20:03;;;;;;;7.25;3.92;;;21.10;99.90;;;;;;5029559;28;20499;-66
2022/08/18 09:22:38;;;;;;;8.55;3.83;;;21.00;99.90;;;;;;5033328;28;20556;-66
2022/08/18 09:25:10;;;;;;;6.07;3.67;;;21.00;99.90;;;;;;5022394;28;20559;-66
2022/08/18 09:27:43;;;;;;;;;;;21.00;99.90;;;;;;5017906;28;20034;-66
2022/08/18 09:30:40;;;;;;;10.60;4.13;;;20.90;99.90;;;;;;5025757;28;19940;-66
2022/08/18 09:33:24;;;;;;;5.35;3.42;;;20.90;99.90;;;;;;5033059;28;20037;-66
2022/08/18 09:36:27;;;;;;;10.77;4.22;;;20.90;99.90;;;;;;5033097;28;20049;-66
2022/08/18 09:42:14;;;;;;;7.63;4.22;;;20.80;99.90;;;;;;5033440;28;20096;-66
2022/08/18 09:44:40;;;;;;;5.88;3.10;;;20.70;99.90;;;;;;5032786;28;20084;-67
2022/08/18 09:47:07;;;;;;;9.70;3.28;;;20.60;99.90;;;;;;5033363;28;20064;-66
2022/08/18 09:49:45;;;;;;;10.68;4.10;;;20.60;99.90;;;;;;5032899;28;20164;-66
2022/08/18 09:52:20;;;;;;;7.72;3.35;;;20.60;99.90;;;;;;5033276;28;20125;-66
2022/08/18 09:54:57;;;;;;;6.57;3.88;;;20.60;99.90;;;;;;5032785;28;20037;-66
2022/08/18 09:57:29;;;;;;;9.10;3.72;;;20.70;99.90;;;;;;5033033;28;20045;-66
2022/08/18 10:00:15;;;;;;;12.43;4.15;;;20.70;99.90;;;;;;5032032;28;20041;-66
2022/08/18 10:02:41;;;;;;;10.73;4.60;;;20.80;99.90;;;;;;5032057;28;20068;-66
2022/08/18 10:05:18;;;;;;;12.55;4.53;;;20.80;99.90;;;;;;5032281;28;20041;-66
2022/08/18 10:08:09;;;;;;;9.38;4.40;;;21.00;99.90;;;;;;5032731;28;20045;-66
2022/08/18 10:10:55;;;;;;;8.90;5.07;;;21.00;99.90;;;;;;5019695;28;20183;-66
2022/08/18 10:13:41;;;;;;;11.90;4.30;;;21.10;99.90;;;;;;5030730;28;20038;-66
2022/08/18 10:16:42;;;;;;;7.90;4.53;;;21.10;99.90;;;;;;5019984;28;20054;-66
2022/08/18 10:19:16;;;;;;;10.13;4.40;;;21.10;99.90;;;;;;5027897;28;20120;-65
2022/08/18 10:22:11;;;;;;;7.43;4.28;;;21.10;99.90;;;;;;5031355;28;20048;-65
2022/08/18 10:24:51;;;;;;;10.13;3.75;;;21.20;99.90;;;;;;5027271;28;20053;-66
2022/08/18 10:27:50;;;;;;;5.10;2.80;;;21.10;99.90;;;;;;5032372;28;20084;-66
2022/08/18 10:30:29;;;;;;;11.50;3.97;;;21.10;99.90;;;;;;5032229;28;20667;-66
2022/08/18 10:32:56;;;;;;;8.27;3.42;;;21.10;99.90;;;;;;5032220;28;20553;-66
2022/08/18 10:35:56;;;;;;;13.20;3.38;;;21.00;99.90;;;;;;5030427;28;20049;-66
2022/08/18 10:38:36;;;;;;;9.10;3.50;;;21.10;99.90;;;;;;5022919;28;20468;-66
2022/08/18 10:41:08;;;;;;;6.95;3.50;;;21.10;99.90;;;;;;5009930;28;20053;-64
2022/08/18 10:43:47;;;;;;;7.13;3.40;;;21.20;99.90;;;;;;5012179;28;20492;-66
2022/08/18 10:46:19;;;;;;;7.70;3.60;;;21.30;99.90;;;;;;5012302;28;20129;-66
2022/08/18 10:49:01;;;;;;;11.45;3.83;;;21.30;99.90;;;;;;5012414;28;20076;-66
2022/08/18 10:51:41;;;;;;;8.85;3.60;;;21.30;99.90;;;;;;5012163;28;20042;-66
2022/08/18 10:54:13;;;;;;;6.75;3.65;;;21.20;99.90;;;;;;5011758;28;20099;-66
2022/08/18 10:56:51;;;;;;;9.75;3.33;;;21.30;99.90;;;;;;5012314;28;20037;-66
2022/08/18 10:59:38;;;;;;;8.27;3.53;;;21.20;99.90;;;;;;5011792;28;20042;-66
2022/08/18 11:02:26;;;;;;;8.25;4.10;;;21.10;99.90;;;;;;5011925;28;20085;-65
2022/08/18 11:04:54;;;;;;;8.07;2.50;;;21.20;99.90;;;;;;5010305;28;20050;-66
2022/08/18 11:07:26;;;;;;;7.57;2.72;;;21.40;99.90;;;;;;5010519;28;20101;-66
2022/08/18 11:09:54;;;;;;;3.33;2.50;;;21.60;99.90;;;;;;5011418;28;20081;-67
2022/08/18 11:12:39;;;;;;;3.58;1.98;;;21.60;99.90;;;;;;5010420;28;20046;-66
2022/08/18 11:15:27;;;;;;;5.43;2.63;;;21.70;99.90;;;;;;5021724;28;20053;-66
2022/08/18 11:18:15;;;;;;;7.43;2.75;;;21.70;99.90;;;;;;5020796;28;20088;-66
2022/08/18 11:20:42;;;;;;;3.42;1.98;;;21.90;99.90;;;;;;5020242;28;20053;-66
2022/08/18 11:23:14;;;;;;;3.38;1.80;;;22.00;99.90;;;;;;5018646;28;20073;-66
2022/08/18 11:25:41;;;;;;;5.97;1.80;;;22.00;99.90;;;;;;5020083;28;20041;-66
2022/08/18 11:28:15;;;;;;;5.45;2.03;;;22.00;99.90;;;;;;5014576;28;20048;-65
2022/08/18 11:30:43;;;;;;;2.78;1.48;;;22.20;99.90;;;;;;5010226;28;20099;-64
2022/08/18 11:33:14;;;;;;;2.38;1.85;;;22.10;99.90;;;;;;5011347;28;20116;-64
2022/08/18 11:35:50;;;;;;;3.28;1.55;;;22.30;99.90;;;;;;5023897;28;20060;-64
2022/08/18 11:38:18;;;;;;;3.50;1.70;;;22.10;99.90;;;;;;5030895;28;20060;-65
2022/08/18 11:40:51;;;;;;;1.95;1.45;;;22.10;99.90;;;;;;5030728;28;20112;-64
2022/08/18 11:43:26;;;;;;;2.13;1.60;;;22.00;99.90;;;;;;5031159;28;20041;-64
2022/08/18 11:45:56;;;;;;;6.35;1.98;;;22.00;99.90;;;;;;5030573;28;20046;-64
2022/08/18 11:48:34;;;;;;;4.97;1.90;;;22.10;99.90;;;;;;5028295;28;20410;-64
2022/08/18 11:51:16;;;;;;;5.15;2.05;;;22.10;99.90;;;;;;5010691;28;20042;-64
2022/08/18 11:53:48;;;;;;;3.10;1.98;;;22.10;99.90;;;;;;5010572;28;20140;-64
2022/08/18 11:56:19;;;;;;;4.38;2.08;;;22.00;99.90;;;;;;5009763;28;20515;-64
2022/08/18 11:58:52;;;;;;;4.82;2.08;;;22.00;99.90;;;;;;5010858;28;20091;-64
2022/08/18 12:01:39;;;;;;;4.20;2.05;;;22.00;99.90;;;;;;5011432;28;20042;-66
2022/08/18 12:04:13;;;;;;;3.03;2.25;;;22.00;99.90;;;;;;5010812;28;20111;-64
2022/08/18 12:07:11;;;;;;;4.32;2.28;;;22.10;99.90;;;;;;5010827;28;20088;-65
2022/08/18 12:10:08;;;;;;;5.05;2.17;;;22.00;99.90;;;;;;5010741;28;20041;-65
2022/08/18 12:12:42;;;;;;;3.90;1.70;;;22.20;99.90;;;;;;5009928;28;20077;-66
2022/08/18 12:15:11;;;;;;;2.30;2.08;;;22.20;99.90;;;;;;5010550;28;20550;-66
2022/08/18 12:17:37;;;;;;;3.45;2.00;;;22.20;99.90;;;;;;5010821;28;20053;-66
2022/08/18 12:20:07;;;;;;;4.30;1.95;;;22.30;99.90;;;;;;5010775;28;20041;-66
2022/08/18 12:22:33;;;;;;;6.85;1.88;;;22.30;99.90;;;;;;5010843;28;20129;-66
2022/08/18 12:25:00;;;;;;;2.50;1.65;;;22.40;99.90;;;;;;5018842;28;20065;-67
2022/08/18 12:27:27;;;;;;;3.10;2.10;;;22.30;99.90;;;;;;5029228;28;20386;-67
2022/08/18 12:29:57;;;;;;;5.65;1.98;;;22.40;99.90;;;;;;5029358;28;20041;-67
2022/08/18 12:32:24;;;;;;;6.15;2.65;;;22.40;99.90;;;;;;5029122;28;20060;-66
2022/08/18 12:34:49;;;;;;;3.03;1.92;;;22.40;99.90;;;;;;5033979;28;20047;-66
2022/08/18 12:37:18;;;;;;;6.47;2.25;;;22.60;99.90;;;;;;5034328;28;20582;-66
2022/08/18 12:39:44;;;;;;;5.78;2.33;;;22.80;99.90;;;;;;5034104;28;20440;-66
2022/08/18 12:42:10;;;;;;;5.82;2.70;;;22.80;99.90;;;;;;5034532;28;20137;-66
2022/08/18 12:44:37;;;;;;;3.92;2.30;;;22.90;99.90;;;;;;5034165;28;20064;-66
2022/08/18 12:47:06;;;;;;;6.68;2.10;;;22.80;99.90;;;;;;5034244;28;20513;-66
2022/08/18 12:49:32;;;;;;;4.65;2.40;;;22.90;99.90;;;;;;5034111;28;20045;-66
2022/08/18 12:51:58;;;;;;;5.93;1.95;;;22.90;99.90;;;;;;5034148;28;20040;-66
2022/08/18 12:54:24;;;;;;;6.18;1.95;;;22.90;99.90;;;;;;5033560;28;20091;-65
2022/08/18 12:56:52;;;;;;;5.93;2.13;;;22.80;99.90;;;;;;5034154;28;20183;-65
2022/08/18 12:59:19;;;;;;;4.93;2.20;;;22.70;99.90;;;;;;5033977;28;20033;-65
2022/08/18 13:01:45;;;;;;;4.35;2.22;;;22.80;99.90;;;;;;5033700;28;20073;-66
2022/08/18 13:04:10;;;;;;;6.82;2.00;;;22.80;99.90;;;;;;5033728;28;20077;-66
2022/08/18 13:06:40;;;;;;;3.30;1.85;;;22.90;99.90;;;;;;5015777;28;20076;-66
2022/08/18 13:09:06;;;;;;;4.10;1.88;;;23.00;99.90;;;;;;5033861;28;20450;-66
2022/08/18 13:11:32;;;;;;;7.55;2.55;;;23.10;99.90;;;;;;5034098;28;20043;-66
2022/08/18 13:13:57;;;;;;;4.68;1.75;;;23.10;99.90;;;;;;5033810;28;20041;-65
2022/08/18 13:16:34;;;;;;;5.40;2.40;;;23.10;99.90;;;;;;5033913;28;20048;-66
2022/08/18 13:19:00;;;;;;;8.98;2.45;;;23.20;99.90;;;;;;5033924;28;20144;-67
2022/08/18 13:21:26;;;;;;;5.30;1.92;;;23.20;99.90;;;;;;5032118;28;20049;-65